createdAt,value
2017-04-26T00:00:05.799Z,0
2017-04-26T00:01:17.232Z,0
2017-04-26T00:02:28.252Z,0
2017-04-26T00:03:39.278Z,0
2017-04-26T00:04:50.562Z,0
2017-04-26T00:06:01.591Z,0
2017-04-26T00:07:12.609Z,0
2017-04-26T00:08:23.634Z,0
2017-04-26T00:09:34.875Z,0
2017-04-26T00:10:45.903Z,0
2017-04-26T00:11:56.933Z,0
2017-04-26T00:13:07.979Z,0
2017-04-26T00:14:19.011Z,0
2017-04-26T00:15:30.105Z,0
2017-04-26T00:16:41.139Z,0
2017-04-26T00:17:52.187Z,0
2017-04-26T00:19:03.223Z,0
2017-04-26T00:20:14.464Z,0
2017-04-26T00:21:25.493Z,0
2017-04-26T00:22:36.722Z,0
2017-04-26T00:23:47.962Z,0
2017-04-26T00:24:59.189Z,0
2017-04-26T00:26:10.266Z,0
2017-04-26T00:27:21.306Z,0
2017-04-26T00:28:32.332Z,0
2017-04-26T00:29:43.575Z,0
2017-04-26T00:30:54.804Z,0
2017-04-26T00:32:05.831Z,0
2017-04-26T00:33:16.916Z,0
2017-04-26T00:34:27.959Z,0
2017-04-26T00:35:38.992Z,0
2017-04-26T00:36:50.028Z,0
2017-04-26T00:38:01.059Z,0
2017-04-26T00:39:12.105Z,0
2017-04-26T00:40:23.146Z,0
2017-04-26T00:41:34.164Z,0
2017-04-26T00:42:45.244Z,0
2017-04-26T00:43:56.265Z,0
2017-04-26T00:45:07.301Z,0
2017-04-26T00:46:18.530Z,0
2017-04-26T00:47:29.563Z,0
2017-04-26T00:48:40.604Z,0
2017-04-26T00:49:51.628Z,0
2017-04-26T00:51:02.853Z,0
2017-04-26T00:52:14.088Z,0
2017-04-26T00:53:25.165Z,0
2017-04-26T00:54:36.197Z,0
2017-04-26T00:55:47.438Z,0
2017-04-26T00:56:58.865Z,0
2017-04-26T00:58:10.086Z,0
2017-04-26T00:59:21.117Z,0
2017-04-26T01:00:32.140Z,0
2017-04-26T01:01:43.174Z,0
2017-04-26T01:02:54.204Z,0
2017-04-26T01:04:05.472Z,0
2017-04-26T01:05:16.500Z,0
2017-04-26T01:06:27.522Z,0
2017-04-26T01:07:38.542Z,0
2017-04-26T01:08:49.578Z,0
2017-04-26T01:10:00.661Z,0
2017-04-26T01:11:11.693Z,0
2017-04-26T01:12:22.727Z,0
2017-04-26T01:13:33.959Z,0
2017-04-26T01:14:44.980Z,0
2017-04-26T01:15:56.039Z,0
2017-04-26T01:17:07.283Z,0
2017-04-26T01:18:18.326Z,0
2017-04-26T01:19:29.563Z,0
2017-04-26T01:20:40.624Z,0
2017-04-26T01:21:51.662Z,0
2017-04-26T01:23:02.688Z,0
2017-04-26T01:24:13.715Z,0
2017-04-26T01:25:24.806Z,0
2017-04-26T01:26:35.829Z,0
2017-04-26T01:27:47.061Z,0
2017-04-26T01:28:58.096Z,0
2017-04-26T01:30:09.328Z,0
2017-04-26T01:31:20.363Z,0
2017-04-26T01:32:31.387Z,0
2017-04-26T01:33:42.421Z,0
2017-04-26T01:34:53.460Z,0
2017-04-26T01:36:04.544Z,0
2017-04-26T01:37:15.578Z,0
2017-04-26T01:38:26.620Z,0
2017-04-26T01:39:37.646Z,0
2017-04-26T01:40:48.877Z,0
2017-04-26T01:41:59.907Z,0
2017-04-26T01:43:10.929Z,0
2017-04-26T01:44:21.973Z,0
2017-04-26T01:45:33.008Z,0
2017-04-26T01:46:44.084Z,0
2017-04-26T01:47:55.115Z,0
2017-04-26T01:49:06.154Z,0
2017-04-26T01:50:17.189Z,0
2017-04-26T01:51:28.404Z,0
2017-04-26T01:52:39.432Z,0
2017-04-26T01:53:50.668Z,0
2017-04-26T01:55:01.700Z,0
2017-04-26T01:56:12.735Z,0
2017-04-26T01:57:23.757Z,0
2017-04-26T01:58:34.995Z,0
2017-04-26T01:59:46.235Z,0
2017-04-26T02:00:57.263Z,0
2017-04-26T02:02:08.290Z,0
2017-04-26T02:03:19.315Z,0
2017-04-26T02:04:30.561Z,0
2017-04-26T02:05:41.580Z,0
2017-04-26T02:06:52.620Z,0
2017-04-26T02:08:03.689Z,0
2017-04-26T02:09:14.931Z,0
2017-04-26T02:10:26.160Z,0
2017-04-26T02:11:37.392Z,0
2017-04-26T02:12:48.415Z,0
2017-04-26T02:13:59.449Z,0
2017-04-26T02:15:10.692Z,0
2017-04-26T02:16:21.734Z,0
2017-04-26T02:17:32.773Z,0
2017-04-26T02:18:43.868Z,0
2017-04-26T02:19:54.899Z,0
2017-04-26T02:21:05.928Z,0
2017-04-26T02:22:16.954Z,0
2017-04-26T02:23:27.981Z,0
2017-04-26T02:24:39.088Z,0
2017-04-26T02:25:50.100Z,0
2017-04-26T02:27:01.130Z,0
2017-04-26T02:28:12.157Z,0
2017-04-26T02:29:23.226Z,0
2017-04-26T02:30:34.245Z,0
2017-04-26T02:31:45.258Z,0
2017-04-26T02:32:56.273Z,0
2017-04-26T02:34:07.292Z,0
2017-04-26T02:35:18.355Z,0
2017-04-26T02:36:29.374Z,0
2017-04-26T02:37:40.602Z,0
2017-04-26T02:38:51.622Z,0
2017-04-26T02:40:02.844Z,0
2017-04-26T02:41:13.869Z,0
2017-04-26T02:42:24.887Z,0
2017-04-26T02:43:35.928Z,0
2017-04-26T02:44:46.936Z,0
2017-04-26T02:45:57.959Z,0
2017-04-26T02:47:09.020Z,0
2017-04-26T02:48:20.040Z,0
2017-04-26T02:49:31.270Z,0
2017-04-26T02:50:42.294Z,0
2017-04-26T02:51:53.369Z,0
2017-04-26T02:53:04.392Z,0
2017-04-26T02:54:15.614Z,0
2017-04-26T02:55:26.837Z,0
2017-04-26T02:56:38.058Z,0
2017-04-26T02:57:49.131Z,0
2017-04-26T02:59:00.158Z,0
2017-04-26T03:00:11.173Z,0
2017-04-26T03:01:22.195Z,0
2017-04-26T03:02:33.263Z,0
2017-04-26T03:03:44.296Z,0
2017-04-26T03:04:55.328Z,0
2017-04-26T03:06:06.556Z,0
2017-04-26T03:07:17.572Z,0
2017-04-26T03:08:28.611Z,0
2017-04-26T03:09:39.847Z,0
2017-04-26T03:10:50.880Z,0
2017-04-26T03:12:01.914Z,0
2017-04-26T03:13:13.030Z,0
2017-04-26T03:14:24.068Z,0
2017-04-26T03:15:35.311Z,0
2017-04-26T03:16:46.348Z,0
2017-04-26T03:17:57.382Z,0
2017-04-26T03:19:08.457Z,0
2017-04-26T03:20:19.482Z,0
2017-04-26T03:21:30.503Z,0
2017-04-26T03:22:41.525Z,0
2017-04-26T03:23:52.561Z,0
2017-04-26T03:25:03.587Z,0
2017-04-26T03:26:14.611Z,0
2017-04-26T03:27:25.645Z,0
2017-04-26T03:28:36.685Z,0
2017-04-26T03:29:47.968Z,0
2017-04-26T03:30:58.990Z,0
2017-04-26T03:32:10.018Z,0
2017-04-26T03:33:21.052Z,4
2017-04-26T03:34:32.079Z,4
2017-04-26T03:35:43.300Z,0
2017-04-26T03:36:54.333Z,4
2017-04-26T03:38:05.374Z,4
2017-04-26T03:39:16.415Z,4
2017-04-26T03:40:27.489Z,8
2017-04-26T03:41:38.520Z,4
2017-04-26T03:42:49.568Z,8
2017-04-26T03:44:00.604Z,8
2017-04-26T03:45:11.639Z,12
2017-04-26T03:46:23.062Z,12
2017-04-26T03:47:34.087Z,12
2017-04-26T03:48:45.314Z,16
2017-04-26T03:49:56.347Z,20
2017-04-26T03:51:07.634Z,24
2017-04-26T03:52:18.658Z,28
2017-04-26T03:53:29.690Z,36
2017-04-26T03:54:40.706Z,40
2017-04-26T03:55:51.741Z,48
2017-04-26T03:57:02.765Z,56
2017-04-26T03:58:13.984Z,64
2017-04-26T03:59:25.424Z,72
2017-04-26T04:00:36.649Z,80
2017-04-26T04:01:47.722Z,92
2017-04-26T04:02:58.748Z,108
2017-04-26T04:04:09.775Z,116
2017-04-26T04:05:20.805Z,132
2017-04-26T04:06:32.045Z,148
2017-04-26T04:07:43.074Z,164
2017-04-26T04:08:54.104Z,184
2017-04-26T04:10:05.138Z,204
2017-04-26T04:11:16.361Z,228
2017-04-26T04:12:27.438Z,252
2017-04-26T04:13:38.487Z,284
2017-04-26T04:14:49.523Z,316
2017-04-26T04:16:00.542Z,348
2017-04-26T04:17:11.576Z,376
2017-04-26T04:18:22.611Z,420
2017-04-26T04:19:33.642Z,456
2017-04-26T04:20:44.658Z,492
2017-04-26T04:21:55.690Z,524
2017-04-26T04:23:06.772Z,556
2017-04-26T04:24:17.796Z,596
2017-04-26T04:25:28.825Z,636
2017-04-26T04:26:39.863Z,692
2017-04-26T04:27:50.884Z,760
2017-04-26T04:29:01.909Z,828
2017-04-26T04:30:12.967Z,872
2017-04-26T04:31:23.989Z,904
2017-04-26T04:32:35.024Z,936
2017-04-26T04:33:46.093Z,964
2017-04-26T04:34:57.320Z,988
2017-04-26T04:36:08.329Z,1032
2017-04-26T04:37:19.343Z,1080
2017-04-26T04:38:30.380Z,1128
2017-04-26T04:39:41.608Z,1176
2017-04-26T04:40:53.055Z,1224
2017-04-26T04:42:04.281Z,1276
2017-04-26T04:43:15.301Z,1332
2017-04-26T04:44:26.379Z,1392
2017-04-26T04:45:37.405Z,1448
2017-04-26T04:46:48.638Z,1500
2017-04-26T04:47:59.674Z,1556
2017-04-26T04:49:10.727Z,1608
2017-04-26T04:50:21.751Z,1640
2017-04-26T04:51:32.782Z,1664
2017-04-26T04:52:43.815Z,1704
2017-04-26T04:53:55.054Z,1760
2017-04-26T04:55:06.091Z,1796
2017-04-26T04:56:17.162Z,1804
2017-04-26T04:57:28.179Z,1832
2017-04-26T04:58:39.204Z,1868
2017-04-26T04:59:50.223Z,1924
2017-04-26T05:01:01.249Z,1984
2017-04-26T05:02:12.264Z,2012
2017-04-26T05:03:23.298Z,2024
2017-04-26T05:04:34.535Z,2128
2017-04-26T05:05:45.816Z,2352
2017-04-26T05:06:56.826Z,2632
2017-04-26T05:08:07.861Z,2964
2017-04-26T05:09:19.098Z,3028
2017-04-26T05:10:30.131Z,2880
2017-04-26T05:11:41.167Z,3012
2017-04-26T05:12:52.194Z,3324
2017-04-26T05:14:03.215Z,3532
2017-04-26T05:15:14.235Z,3632
2017-04-26T05:16:25.716Z,3564
2017-04-26T05:17:36.747Z,3456
2017-04-26T05:18:47.779Z,3464
2017-04-26T05:19:58.807Z,3536
2017-04-26T05:21:09.826Z,3644
2017-04-26T05:22:21.046Z,3688
2017-04-26T05:23:32.275Z,3708
2017-04-26T05:24:43.707Z,3500
2017-04-26T05:25:54.737Z,3396
2017-04-26T05:27:06.218Z,3192
2017-04-26T05:28:17.251Z,2904
2017-04-26T05:29:28.476Z,2752
2017-04-26T05:30:39.715Z,2748
2017-04-26T05:31:50.746Z,2816
2017-04-26T05:33:01.778Z,2920
2017-04-26T05:34:12.806Z,3024
2017-04-26T05:35:23.832Z,3080
2017-04-26T05:36:34.862Z,3120
2017-04-26T05:37:45.931Z,3120
2017-04-26T05:38:56.962Z,3160
2017-04-26T05:40:07.974Z,3068
2017-04-26T05:41:19.008Z,3044
2017-04-26T05:42:30.241Z,3036
2017-04-26T05:43:41.272Z,3232
2017-04-26T05:44:52.496Z,3392
2017-04-26T05:46:03.522Z,3448
2017-04-26T05:47:14.756Z,3316
2017-04-26T05:48:25.838Z,3164
2017-04-26T05:49:36.860Z,3124
2017-04-26T05:50:48.090Z,3256
2017-04-26T05:51:59.318Z,3380
2017-04-26T05:53:10.346Z,3544
2017-04-26T05:54:21.578Z,3784
2017-04-26T05:55:32.593Z,3928
2017-04-26T05:56:43.619Z,3952
2017-04-26T05:57:54.639Z,3900
2017-04-26T05:59:05.717Z,3828
2017-04-26T06:00:16.745Z,3848
2017-04-26T06:01:27.977Z,3988
2017-04-26T06:02:39.007Z,4168
2017-04-26T06:03:50.049Z,4412
2017-04-26T06:05:01.107Z,4648
2017-04-26T06:06:12.329Z,4780
2017-04-26T06:07:23.352Z,4828
2017-04-26T06:08:34.590Z,4856
2017-04-26T06:09:45.621Z,5068
2017-04-26T06:10:56.647Z,5496
2017-04-26T06:12:07.682Z,6200
2017-04-26T06:13:18.743Z,6964
2017-04-26T06:14:29.999Z,7556
2017-04-26T06:15:41.219Z,8080
2017-04-26T06:16:52.453Z,8576
2017-04-26T06:18:03.521Z,9264
2017-04-26T06:19:14.768Z,10280
2017-04-26T06:20:26.034Z,12668
2017-04-26T06:21:37.058Z,10464
2017-04-26T06:22:48.085Z,10472
2017-04-26T06:23:59.328Z,10904
2017-04-26T06:25:10.428Z,11256
2017-04-26T06:26:21.451Z,11788
2017-04-26T06:27:32.473Z,17696
2017-04-26T06:28:43.502Z,12400
2017-04-26T06:29:54.539Z,13192
2017-04-26T06:31:05.572Z,16288
2017-04-26T06:32:16.603Z,9588
2017-04-26T06:33:27.626Z,22144
2017-04-26T06:34:38.670Z,7056
2017-04-26T06:35:49.945Z,6112
2017-04-26T06:37:00.978Z,5676
2017-04-26T06:38:12.004Z,5400
2017-04-26T06:39:23.240Z,5232
2017-04-26T06:40:34.282Z,5088
2017-04-26T06:41:45.299Z,5020
2017-04-26T06:42:56.541Z,5136
2017-04-26T06:44:07.575Z,5324
2017-04-26T06:45:18.611Z,5688
2017-04-26T06:46:29.691Z,7212
2017-04-26T06:47:40.717Z,7168
2017-04-26T06:48:51.747Z,6916
2017-04-26T06:50:02.774Z,7060
2017-04-26T06:51:13.810Z,7208
2017-04-26T06:52:24.843Z,7424
2017-04-26T06:53:35.863Z,7844
2017-04-26T06:54:46.888Z,8280
2017-04-26T06:55:57.922Z,8860
2017-04-26T06:57:08.953Z,10160
2017-04-26T06:58:19.991Z,10368
2017-04-26T06:59:31.025Z,10052
2017-04-26T07:00:42.054Z,10012
2017-04-26T07:01:53.071Z,10132
2017-04-26T07:03:04.353Z,10444
2017-04-26T07:04:15.390Z,17600
2017-04-26T07:05:26.610Z,9360
2017-04-26T07:06:37.832Z,8548
2017-04-26T07:07:49.062Z,8464
2017-04-26T07:09:00.109Z,8744
2017-04-26T07:10:11.140Z,8948
2017-04-26T07:11:22.366Z,9596
2017-04-26T07:12:33.390Z,8880
2017-04-26T07:13:44.464Z,7948
2017-04-26T07:14:55.498Z,7728
2017-04-26T07:16:06.739Z,7656
2017-04-26T07:17:17.974Z,7624
2017-04-26T07:18:29.002Z,7580
2017-04-26T07:19:40.073Z,7512
2017-04-26T07:20:51.100Z,7504
2017-04-26T07:22:02.135Z,7508
2017-04-26T07:23:13.167Z,7656
2017-04-26T07:24:24.265Z,8080
2017-04-26T07:25:35.311Z,8816
2017-04-26T07:26:46.331Z,9684
2017-04-26T07:27:57.358Z,10552
2017-04-26T07:29:08.406Z,11692
2017-04-26T07:30:19.455Z,12044
2017-04-26T07:31:30.691Z,12184
2017-04-26T07:32:41.721Z,11880
2017-04-26T07:33:52.738Z,11664
2017-04-26T07:35:03.815Z,11236
2017-04-26T07:36:14.841Z,10864
2017-04-26T07:37:25.856Z,10472
2017-04-26T07:38:36.883Z,10308
2017-04-26T07:39:48.115Z,10192
2017-04-26T07:40:59.153Z,9984
2017-04-26T07:42:10.393Z,9672
2017-04-26T07:43:21.434Z,9336
2017-04-26T07:44:32.464Z,8984
2017-04-26T07:45:43.551Z,8708
2017-04-26T07:46:54.583Z,8424
2017-04-26T07:48:05.608Z,8172
2017-04-26T07:49:16.640Z,8080
2017-04-26T07:50:27.683Z,8268
2017-04-26T07:51:38.716Z,8808
2017-04-26T07:52:49.751Z,9640
2017-04-26T07:54:00.772Z,10548
2017-04-26T07:55:11.796Z,11920
2017-04-26T07:56:22.878Z,13072
2017-04-26T07:57:33.915Z,13760
2017-04-26T07:58:44.951Z,14540
2017-04-26T07:59:55.973Z,13224
2017-04-26T08:01:07.201Z,13116
2017-04-26T08:02:18.218Z,13316
2017-04-26T08:03:29.261Z,13228
2017-04-26T08:04:40.285Z,13696
2017-04-26T08:05:51.314Z,13736
2017-04-26T08:07:02.600Z,14348
2017-04-26T08:08:13.633Z,15124
2017-04-26T08:09:24.664Z,16608
2017-04-26T08:10:35.697Z,20032
2017-04-26T08:11:46.732Z,18016
2017-04-26T08:12:57.759Z,17344
2017-04-26T08:14:09.005Z,17184
2017-04-26T08:15:20.039Z,17984
2017-04-26T08:16:31.068Z,17664
2017-04-26T08:17:42.102Z,17344
2017-04-26T08:18:53.175Z,17376
2017-04-26T08:20:04.209Z,17856
2017-04-26T08:21:15.242Z,20128
2017-04-26T08:22:26.279Z,19648
2017-04-26T08:23:37.508Z,35008
2017-04-26T08:24:48.552Z,45888
2017-04-26T08:25:59.987Z,21376
2017-04-26T08:27:11.217Z,22080
2017-04-26T08:28:22.300Z,22688
2017-04-26T08:29:33.331Z,62176
2017-04-26T08:30:44.400Z,23456
2017-04-26T08:31:55.429Z,26112
2017-04-26T08:33:06.462Z,22880
2017-04-26T08:34:17.503Z,27200
2017-04-26T08:35:28.751Z,27072
2017-04-26T08:36:39.794Z,39264
2017-04-26T08:37:50.836Z,39168
2017-04-26T08:39:02.132Z,28480
2017-04-26T08:40:13.176Z,28672
2017-04-26T08:41:24.202Z,40864
2017-04-26T08:42:35.241Z,27520
2017-04-26T08:43:46.485Z,39488
2017-04-26T08:44:57.582Z,26496
2017-04-26T08:46:08.629Z,27136
2017-04-26T08:47:19.682Z,43776
2017-04-26T08:48:30.717Z,38272
2017-04-26T08:49:41.756Z,64256
2017-04-26T08:50:52.795Z,32000
2017-04-26T08:52:03.838Z,38816
2017-04-26T08:53:14.879Z,46624
2017-04-26T08:54:26.111Z,53536
2017-04-26T08:55:37.345Z,38784
2017-04-26T08:56:48.878Z,24704
2017-04-26T08:57:59.905Z,21184
2017-04-26T08:59:10.946Z,15248
2017-04-26T09:00:21.972Z,13700
2017-04-26T09:01:33.017Z,13580
2017-04-26T09:02:44.072Z,30272
2017-04-26T09:03:55.313Z,15456
2017-04-26T09:05:06.558Z,15520
2017-04-26T09:06:17.654Z,44192
2017-04-26T09:07:28.706Z,54752
2017-04-26T09:08:39.743Z,15584
2017-04-26T09:09:50.778Z,12992
2017-04-26T09:11:01.825Z,12536
2017-04-26T09:12:13.060Z,13048
2017-04-26T09:13:24.294Z,15808
2017-04-26T09:14:35.338Z,19648
2017-04-26T09:15:46.378Z,16480
2017-04-26T09:16:57.471Z,14016
2017-04-26T09:18:08.519Z,12640
2017-04-26T09:19:19.566Z,12520
2017-04-26T09:20:30.597Z,11624
2017-04-26T09:21:41.631Z,10408
2017-04-26T09:22:52.715Z,10012
2017-04-26T09:24:03.769Z,9892
2017-04-26T09:25:14.804Z,9764
2017-04-26T09:26:25.836Z,9636
2017-04-26T09:27:36.870Z,9968
2017-04-26T09:28:47.900Z,11040
2017-04-26T09:29:58.974Z,11972
2017-04-26T09:31:10.005Z,13432
2017-04-26T09:32:21.035Z,12604
2017-04-26T09:33:32.072Z,11348
2017-04-26T09:34:43.172Z,10144
2017-04-26T09:35:54.406Z,9060
2017-04-26T09:37:05.430Z,8412
2017-04-26T09:38:16.454Z,8116
2017-04-26T09:39:27.482Z,7988
2017-04-26T09:40:38.514Z,8140
2017-04-26T09:41:49.540Z,8504
2017-04-26T09:43:00.574Z,8880
2017-04-26T09:44:11.647Z,9228
2017-04-26T09:45:22.684Z,9788
2017-04-26T09:46:33.710Z,10940
2017-04-26T09:47:44.740Z,10920
2017-04-26T09:48:55.977Z,11332
2017-04-26T09:50:07.005Z,11368
2017-04-26T09:51:18.043Z,11248
2017-04-26T09:52:29.081Z,11316
2017-04-26T09:53:40.322Z,11456
2017-04-26T09:54:51.410Z,11784
2017-04-26T09:56:02.436Z,12448
2017-04-26T09:57:13.688Z,12796
2017-04-26T09:58:24.740Z,12548
2017-04-26T09:59:35.972Z,12032
2017-04-26T10:00:47.008Z,11500
2017-04-26T10:01:58.041Z,11112
2017-04-26T10:03:09.324Z,10876
2017-04-26T10:04:20.354Z,11084
2017-04-26T10:05:31.784Z,11288
2017-04-26T10:06:42.818Z,11704
2017-04-26T10:07:53.849Z,11988
2017-04-26T10:09:04.879Z,11960
2017-04-26T10:10:16.105Z,11864
2017-04-26T10:11:27.143Z,11980
2017-04-26T10:12:38.179Z,12180
2017-04-26T10:13:49.417Z,12736
2017-04-26T10:15:29.339Z,27680
2017-04-26T10:16:40.379Z,13408
2017-04-26T10:17:51.415Z,12504
2017-04-26T10:19:02.454Z,12120
2017-04-26T10:20:13.482Z,11768
2017-04-26T10:21:24.566Z,11432
2017-04-26T10:22:36.000Z,11148
2017-04-26T10:23:47.032Z,10836
2017-04-26T10:24:58.071Z,10536
2017-04-26T10:26:09.106Z,10204
2017-04-26T10:27:20.149Z,9900
2017-04-26T10:29:06.165Z,9596
2017-04-26T10:30:18.799Z,9412
2017-04-26T10:31:40.150Z,9200
2017-04-26T10:32:58.732Z,8980
2017-04-26T10:34:11.496Z,8808
2017-04-26T10:35:22.523Z,8688
2017-04-26T10:36:33.604Z,8608
2017-04-26T10:37:44.631Z,8496
2017-04-26T10:38:55.654Z,8360
2017-04-26T10:40:06.901Z,8220
2017-04-26T10:41:17.934Z,8120
2017-04-26T10:42:29.050Z,8064
2017-04-26T10:43:42.573Z,8072
2017-04-26T10:44:53.809Z,8168
2017-04-26T10:46:04.844Z,8316
2017-04-26T10:47:15.886Z,8480
2017-04-26T10:48:27.123Z,8660
2017-04-26T10:49:38.347Z,8884
2017-04-26T10:50:49.375Z,9204
2017-04-26T10:52:00.619Z,9660
2017-04-26T10:53:11.857Z,10288
2017-04-26T10:54:23.284Z,10492
2017-04-26T10:55:34.534Z,10756
2017-04-26T10:56:45.564Z,11004
2017-04-26T10:57:56.630Z,11188
2017-04-26T10:59:07.909Z,11376
2017-04-26T11:00:18.927Z,11832
2017-04-26T11:01:29.963Z,13420
2017-04-26T11:02:41.005Z,16160
2017-04-26T11:03:52.041Z,25568
2017-04-26T11:05:03.077Z,42624
2017-04-26T11:06:14.117Z,40992
2017-04-26T11:07:25.138Z,20832
2017-04-26T11:08:36.179Z,21824
2017-04-26T11:09:47.258Z,28640
2017-04-26T11:10:58.288Z,48704
2017-04-26T11:12:09.330Z,44832
2017-04-26T11:13:20.573Z,25248
2017-04-26T11:14:31.808Z,30048
2017-04-26T11:15:42.851Z,26016
2017-04-26T11:16:53.892Z,40640
2017-04-26T11:18:04.927Z,41472
2017-04-26T11:19:15.970Z,40128
2017-04-26T11:20:27.072Z,38912
2017-04-26T11:21:38.113Z,37024
2017-04-26T11:22:53.032Z,36032
2017-04-26T11:24:05.139Z,34016
2017-04-26T11:25:16.182Z,15936
2017-04-26T11:26:27.445Z,17888
2017-04-26T11:27:38.496Z,16352
2017-04-26T11:28:49.544Z,15360
2017-04-26T11:30:00.983Z,22944
2017-04-26T11:31:12.019Z,18048
2017-04-26T11:32:23.271Z,28352
2017-04-26T11:33:34.920Z,16416
2017-04-26T11:34:45.961Z,14976
2017-04-26T11:35:57.257Z,19168
2017-04-26T11:37:08.305Z,22560
2017-04-26T11:38:19.340Z,18976
2017-04-26T11:39:30.375Z,21536
2017-04-26T11:40:41.423Z,20576
2017-04-26T11:41:52.467Z,18944
2017-04-26T11:43:03.514Z,18112
2017-04-26T11:44:14.553Z,16960
2017-04-26T11:45:25.604Z,19904
2017-04-26T11:46:36.695Z,19136
2017-04-26T11:47:47.745Z,25344
2017-04-26T11:48:58.786Z,26528
2017-04-26T11:50:09.822Z,26080
2017-04-26T11:51:20.858Z,25728
2017-04-26T11:52:31.905Z,23104
2017-04-26T11:53:42.936Z,18144
2017-04-26T11:54:53.983Z,21280
2017-04-26T11:56:05.223Z,22272
2017-04-26T11:57:16.314Z,15712
2017-04-26T11:58:27.358Z,15840
2017-04-26T11:59:38.406Z,14492
2017-04-26T12:00:49.641Z,13080
2017-04-26T12:02:00.686Z,11916
2017-04-26T12:03:11.768Z,10948
2017-04-26T12:04:22.813Z,10328
2017-04-26T12:05:33.858Z,9912
2017-04-26T12:06:44.898Z,9192
2017-04-26T12:07:56.136Z,8172
2017-04-26T12:09:07.179Z,7236
2017-04-26T12:10:18.215Z,6212
2017-04-26T12:11:29.256Z,5368
2017-04-26T12:12:40.488Z,4712
2017-04-26T12:13:51.771Z,4064
2017-04-26T12:15:02.806Z,3596
2017-04-26T12:16:13.850Z,3348
2017-04-26T12:17:24.889Z,3244
2017-04-26T12:18:35.916Z,3112
2017-04-26T12:19:47.160Z,3008
2017-04-26T12:20:58.406Z,2956
2017-04-26T12:22:09.439Z,2936
2017-04-26T12:23:20.480Z,3080
2017-04-26T12:24:31.563Z,3376
2017-04-26T12:25:42.790Z,3812
2017-04-26T12:26:54.027Z,4308
2017-04-26T12:28:05.059Z,4872
2017-04-26T12:29:16.089Z,5560
2017-04-26T12:30:27.124Z,6312
2017-04-26T12:31:38.151Z,6992
2017-04-26T12:32:49.390Z,7680
2017-04-26T12:34:00.613Z,8448
2017-04-26T12:35:11.700Z,9232
2017-04-26T12:36:22.945Z,10076
2017-04-26T12:37:33.982Z,10940
2017-04-26T12:38:45.022Z,11700
2017-04-26T12:39:56.062Z,12328
2017-04-26T12:41:07.143Z,12900
2017-04-26T12:42:18.184Z,13288
2017-04-26T12:43:29.207Z,13384
2017-04-26T12:44:40.248Z,13304
2017-04-26T12:45:51.298Z,13188
2017-04-26T12:47:02.328Z,13288
2017-04-26T12:48:13.565Z,13228
2017-04-26T12:49:24.609Z,13984
2017-04-26T12:50:35.647Z,14784
2017-04-26T12:51:46.734Z,15616
2017-04-26T12:52:57.770Z,16096
2017-04-26T12:54:08.793Z,14688
2017-04-26T12:55:19.833Z,15872
2017-04-26T12:56:31.067Z,15520
2017-04-26T12:57:42.094Z,15136
2017-04-26T12:58:53.137Z,14720
2017-04-26T13:00:04.370Z,14208
2017-04-26T13:01:15.608Z,13492
2017-04-26T13:02:26.738Z,12964
2017-04-26T13:03:37.776Z,12428
2017-04-26T13:04:48.829Z,12012
2017-04-26T13:06:00.078Z,11628
2017-04-26T13:07:11.319Z,11320
2017-04-26T13:08:22.370Z,11052
2017-04-26T13:09:33.806Z,10796
2017-04-26T13:10:44.831Z,10544
2017-04-26T13:11:55.864Z,10376
2017-04-26T13:13:06.951Z,10148
2017-04-26T13:14:17.978Z,9944
2017-04-26T13:15:29.021Z,9720
2017-04-26T13:16:40.061Z,9512
2017-04-26T13:17:51.098Z,9356
2017-04-26T13:19:02.184Z,9248
2017-04-26T13:20:13.223Z,9168
2017-04-26T13:21:24.266Z,9092
2017-04-26T13:22:35.298Z,9036
2017-04-26T13:23:46.333Z,9060
2017-04-26T13:24:57.775Z,9096
2017-04-26T13:26:09.013Z,9164
2017-04-26T13:27:20.062Z,9276
2017-04-26T13:28:31.294Z,9404
2017-04-26T13:29:42.375Z,9460
2017-04-26T13:30:53.429Z,9536
2017-04-26T13:32:04.479Z,9636
2017-04-26T13:33:15.500Z,9772
2017-04-26T13:34:26.550Z,9876
2017-04-26T13:35:37.591Z,9924
2017-04-26T13:36:48.820Z,9972
2017-04-26T13:37:59.865Z,9796
2017-04-26T13:39:11.106Z,7732
2017-04-26T13:40:22.181Z,6752
2017-04-26T13:41:33.224Z,7132
2017-04-26T13:42:44.280Z,10376
2017-04-26T13:43:55.316Z,7288
2017-04-26T13:45:06.353Z,7388
2017-04-26T13:46:17.395Z,7656
2017-04-26T13:47:28.433Z,11264
2017-04-26T13:48:39.664Z,11320
2017-04-26T13:49:50.892Z,11408
2017-04-26T13:51:01.978Z,8028
2017-04-26T13:52:13.010Z,8848
2017-04-26T13:53:24.264Z,8160
2017-04-26T13:54:35.294Z,13120
2017-04-26T13:55:46.322Z,13760
2017-04-26T13:56:57.611Z,14144
2017-04-26T13:58:08.652Z,14432
2017-04-26T13:59:19.726Z,14016
2017-04-26T14:00:30.760Z,13760
2017-04-26T14:01:41.800Z,14048
2017-04-26T14:02:52.847Z,9088
2017-04-26T14:04:03.879Z,8328
2017-04-26T14:05:14.919Z,7856
2017-04-26T14:06:26.150Z,7420
2017-04-26T14:07:37.189Z,7032
2017-04-26T14:08:48.270Z,6432
2017-04-26T14:09:59.501Z,5876
2017-04-26T14:11:10.531Z,5448
2017-04-26T14:12:21.772Z,5228
2017-04-26T14:13:32.829Z,4860
2017-04-26T14:14:43.878Z,4408
2017-04-26T14:15:55.112Z,4076
2017-04-26T14:17:06.359Z,3908
2017-04-26T14:18:17.440Z,3908
2017-04-26T14:19:28.465Z,3904
2017-04-26T14:20:39.520Z,3880
2017-04-26T14:21:50.562Z,3888
2017-04-26T14:23:01.786Z,3984
2017-04-26T14:24:12.820Z,4200
2017-04-26T14:25:23.849Z,4392
2017-04-26T14:26:34.880Z,7684
2017-04-26T14:27:46.309Z,10980
2017-04-26T14:28:57.385Z,10712
2017-04-26T14:30:08.633Z,10812
2017-04-26T14:31:19.671Z,10028
2017-04-26T14:32:30.710Z,6804
2017-04-26T14:33:41.943Z,6508
2017-04-26T14:34:53.024Z,6780
2017-04-26T14:36:04.060Z,9064
2017-04-26T14:37:15.085Z,9268
2017-04-26T14:38:26.115Z,9356
2017-04-26T14:39:37.348Z,9408
2017-04-26T14:40:48.386Z,9664
2017-04-26T14:41:59.822Z,9560
2017-04-26T14:43:10.845Z,9240
2017-04-26T14:44:22.104Z,9288
2017-04-26T14:45:33.182Z,9052
2017-04-26T14:46:44.217Z,8504
2017-04-26T14:47:55.247Z,7728
2017-04-26T14:49:06.500Z,7180
2017-04-26T14:50:17.536Z,6500
2017-04-26T14:51:28.584Z,5996
2017-04-26T14:52:39.624Z,5640
2017-04-26T14:53:50.662Z,5364
2017-04-26T14:55:01.701Z,5116
2017-04-26T14:56:12.779Z,4968
2017-04-26T14:57:23.813Z,4892
2017-04-26T14:58:35.040Z,4900
2017-04-26T14:59:46.279Z,4896
2017-04-26T15:00:57.512Z,4908
2017-04-26T15:02:08.583Z,4932
2017-04-26T15:03:19.838Z,5156
2017-04-26T15:04:31.275Z,5352
2017-04-26T15:05:42.307Z,5532
2017-04-26T15:06:53.396Z,5620
2017-04-26T15:08:04.428Z,5748
2017-04-26T15:09:15.660Z,5920
2017-04-26T15:10:26.692Z,5996
2017-04-26T15:11:37.726Z,6080
2017-04-26T15:12:48.803Z,6032
2017-04-26T15:14:00.042Z,6116
2017-04-26T15:15:11.083Z,6272
2017-04-26T15:16:22.118Z,6376
2017-04-26T15:17:33.153Z,6392
2017-04-26T15:18:44.194Z,6496
2017-04-26T15:19:55.217Z,6444
2017-04-26T15:21:06.240Z,6548
2017-04-26T15:22:17.487Z,6516
2017-04-26T15:23:28.564Z,6500
2017-04-26T15:24:39.596Z,6472
2017-04-26T15:25:50.616Z,6448
2017-04-26T15:27:01.652Z,6420
2017-04-26T15:28:12.670Z,6392
2017-04-26T15:29:23.908Z,6316
2017-04-26T15:30:34.933Z,6176
2017-04-26T15:31:45.963Z,5972
2017-04-26T15:32:56.994Z,5740
2017-04-26T15:34:08.077Z,5540
2017-04-26T15:35:19.126Z,5344
2017-04-26T15:36:30.156Z,5176
2017-04-26T15:37:41.192Z,5020
2017-04-26T15:38:52.228Z,4896
2017-04-26T15:40:03.267Z,4796
2017-04-26T15:41:14.500Z,4736
2017-04-26T15:42:25.739Z,4700
2017-04-26T15:43:36.973Z,4688
2017-04-26T15:44:48.049Z,4656
2017-04-26T15:45:59.288Z,4592
2017-04-26T15:47:10.326Z,4592
2017-04-26T15:48:21.561Z,4608
2017-04-26T15:49:32.591Z,4632
2017-04-26T15:50:43.827Z,4700
2017-04-26T15:51:54.864Z,4800
2017-04-26T15:53:06.103Z,4264
2017-04-26T15:54:17.546Z,5184
2017-04-26T15:55:28.794Z,5388
2017-04-26T15:56:40.033Z,5540
2017-04-26T15:57:51.261Z,5608
2017-04-26T15:59:02.290Z,5644
2017-04-26T16:00:13.532Z,5640
2017-04-26T16:01:24.632Z,5604